Time;durP1;ratioP1;P1;durP2;ratioP2;P2;SDS_P1;SDS_P2;PMS_P1;PMS_P2;Temp;Humidity;BMP_temperature;BMP_pressure;BME280_temperature;BME280_humidity;BME280_pressure;Samples;Min_cycle;Max_cycle;Signal;HPM_P1;HPM_P2
2022/08/23 00:02:05;;;;;;;24.05;7.85;;;;;;;21.25;69.16;99559.53;1679921;83;21058;-73
2022/08/23 00:04:37;;;;;;;;;;;;;;;21.25;69.04;99551.94;1690169;83;21142;-75
2022/08/23 00:07:05;;;;;;;24.10;7.75;;;;;;;21.25;69.03;99555.48;1711983;83;20493;-74
2022/08/23 00:09:32;;;;;;;20.52;7.30;;;;;;;21.21;68.84;99557.03;1688577;83;21102;-76
2022/08/23 00:12:19;;;;;;;34.15;8.35;;;;;;;21.17;68.84;99561.25;1674818;83;21517;-76
2022/08/23 00:14:51;;;;;;;19.45;7.33;;;;;;;21.16;68.83;99565.03;1674333;83;21534;-77
2022/08/23 00:17:18;;;;;;;;;;;;;;;21.14;68.91;99566.62;1685429;83;21769;-77
2022/08/23 00:19:45;;;;;;;21.68;7.37;;;;;;;21.11;68.72;99557.67;1690709;83;20176;-76
2022/08/23 00:22:11;;;;;;;28.52;6.72;;;;;;;21.08;68.83;99561.38;1697115;83;21649;-79
2022/08/23 00:24:38;;;;;;;20.00;6.65;;;;;;;21.12;68.99;99566.05;1679584;83;21023;-76
2022/08/23 00:27:14;;;;;;;24.10;7.47;;;;;;;21.22;68.72;99568.11;1691024;83;21046;-75
2022/08/23 00:29:51;;;;;;;22.58;6.85;;;;;;;21.23;68.41;99567.06;1697034;83;21222;-74
2022/08/23 00:32:32;;;;;;;21.55;6.33;;;;;;;21.20;67.63;99561.59;1698347;83;21051;-75
2022/08/23 00:34:59;;;;;;;24.87;6.65;;;;;;;21.20;67.58;99564.30;1690150;83;21070;-74
2022/08/23 00:37:26;;;;;;;19.65;6.50;;;;;;;21.20;67.42;99571.59;1693150;83;21610;-76
2022/08/23 00:39:52;;;;;;;22.05;6.28;;;;;;;21.17;67.33;99572.06;1691622;83;21157;-74
2022/08/23 00:48:09;;;;;;;24.15;7.17;;;;;;;21.08;68.28;99577.58;1688718;83;21109;-75
2022/08/23 00:50:50;;;;;;;14.18;6.05;;;;;;;21.06;68.57;99577.81;1655715;84;21490;-75
2022/08/23 00:53:24;;;;;;;22.20;6.80;;;;;;;21.05;68.41;99583.45;1676330;84;21086;-74
2022/08/23 00:55:55;;;;;;;22.58;6.42;;;;;;;20.98;69.04;99579.02;1687030;83;21097;-75
2022/08/23 00:58:21;;;;;;;25.65;6.62;;;;;;;20.95;69.26;99582.19;1685607;83;21077;-77
2022/08/23 01:00:49;;;;;;;20.45;7.05;;;;;;;20.99;69.32;99582.53;1686698;83;21546;-76
2022/08/23 01:03:15;;;;;;;20.70;7.12;;;;;;;21.09;69.22;99591.36;1695066;83;21053;-74
2022/08/23 01:05:59;;;;;;;18.90;6.80;;;;;;;21.08;69.23;99585.69;1690358;83;21356;-75
2022/08/23 01:08:28;;;;;;;18.05;6.70;;;;;;;21.06;69.18;99584.56;1699306;83;21542;-75
2022/08/23 01:13:22;;;;;;;29.18;7.65;;;;;;;21.06;69.30;99575.66;1872985;75;22668;-75
2022/08/23 01:15:53;;;;;;;21.87;6.85;;;;;;;20.99;69.50;99579.83;1856889;76;20933;-75
2022/08/23 01:18:22;;;;;;;20.65;7.17;;;;;;;20.94;69.25;99581.91;1857128;77;21213;-75
2022/08/23 01:21:04;;;;;;;23.80;6.58;;;;;;;20.92;69.09;99581.84;1816403;77;21607;-77
2022/08/23 01:23:44;;;;;;;18.95;7.00;;;;;;;20.90;69.10;99581.27;1835544;75;21250;-74
2022/08/23 01:26:14;;;;;;;21.77;7.17;;;;;;;20.86;69.23;99582.80;1837306;77;20960;-74
2022/08/23 01:28:41;;;;;;;27.07;7.45;;;;;;;20.83;69.43;99577.91;1821648;77;21540;-75
2022/08/23 01:31:08;;;;;;;25.30;6.67;;;;;;;20.79;69.66;99578.38;1833786;77;21153;-76
2022/08/23 01:33:36;;;;;;;21.52;6.70;;;;;;;20.84;69.92;99585.73;1845600;75;20996;-74
2022/08/23 01:36:03;;;;;;;25.30;6.42;;;;;;;20.91;69.54;99582.92;1845964;77;21006;-77
2022/08/23 01:38:32;;;;;;;21.37;6.12;;;;;;;20.90;69.58;99583.45;1847725;77;21036;-78
2022/08/23 01:40:58;;;;;;;16.87;5.37;;;;;;;20.87;69.09;99587.16;1832447;75;22392;-78
2022/08/23 01:43:26;;;;;;;21.37;7.05;;;;;;;20.86;68.76;99587.70;1857041;77;21521;-78
2022/08/23 01:45:54;;;;;;;13.88;6.20;;;;;;;20.83;68.67;99592.22;1823819;75;21056;-78
2022/08/23 01:48:23;;;;;;;20.97;6.83;;;;;;;20.80;68.10;99589.98;1854861;75;21441;-78
2022/08/23 01:50:50;;;;;;;14.33;5.75;;;;;;;20.80;66.90;99594.03;1855001;77;21086;-76
2022/08/23 01:53:18;;;;;;;13.93;5.00;;;;;;;20.78;66.14;99595.64;1841429;76;21016;-77
2022/08/23 01:55:47;;;;;;;17.98;4.85;;;;;;;20.79;65.44;99599.16;1849170;76;21348;-74
2022/08/23 01:58:15;;;;;;;15.40;5.40;;;;;;;20.79;64.82;99597.80;1860720;75;20985;-76
2022/08/23 02:00:43;;;;;;;15.75;4.72;;;;;;;20.79;64.18;99591.06;1845999;75;21010;-77
2022/08/23 02:03:12;;;;;;;12.50;4.40;;;;;;;20.80;63.71;99591.33;1825155;75;20974;-75
2022/08/23 02:05:39;;;;;;;14.65;4.87;;;;;;;20.81;63.29;99592.98;1859635;77;21118;-76
2022/08/23 02:10:54;;;;;;;10.88;4.75;;;;;;;20.82;62.65;99593.26;1841442;76;21005;-75
2022/08/23 02:13:21;;;;;;;11.83;4.65;;;;;;;20.84;62.41;99598.42;1849705;75;21024;-76
2022/08/23 02:15:50;;;;;;;21.62;5.35;;;;;;;20.87;62.25;99595.27;1844573;77;21049;-80
2022/08/23 02:18:20;;;;;;;10.80;4.70;;;;;;;20.86;62.01;99590.91;1839381;75;20994;-75
2022/08/23 02:20:49;;;;;;;14.63;5.17;;;;;;;20.86;61.82;99598.50;1847212;75;21135;-76
2022/08/23 02:23:16;;;;;;;12.13;4.55;;;;;;;20.88;61.75;99601.78;1847026;75;21089;-74
2022/08/23 02:25:43;;;;;;;14.25;4.92;;;;;;;20.88;61.61;99601.78;1846584;75;21022;-73
2022/08/23 02:28:10;;;;;;;18.70;5.20;;;;;;;20.89;61.39;99599.35;1836270;75;21017;-75
2022/08/23 02:30:38;;;;;;;15.03;5.60;;;;;;;20.89;61.44;99602.05;1862827;77;21138;-76
2022/08/23 02:33:06;;;;;;;16.42;4.75;;;;;;;20.89;61.45;99599.35;1848233;75;21171;-76
2022/08/23 02:35:33;;;;;;;12.55;4.78;;;;;;;20.88;61.42;99603.13;1860155;75;20990;-74
2022/08/23 02:38:06;;;;;;;14.23;4.90;;;;;;;20.88;61.45;99601.78;1828356;77;21031;-75
2022/08/23 02:40:34;;;;;;;18.17;5.40;;;;;;;20.85;61.61;99600.08;1843660;77;21024;-74
2022/08/23 02:43:02;;;;;;;12.35;5.67;;;;;;;20.85;61.78;99597.38;1857402;75;21014;-77
2022/08/23 02:45:29;;;;;;;13.28;5.22;;;;;;;20.81;61.86;99603.25;1861659;75;21110;-78
2022/08/23 02:47:55;;;;;;;16.32;5.67;;;;;;;20.79;62.08;99607.25;1860663;77;21076;-79
2022/08/23 02:50:27;;;;;;;20.62;5.60;;;;;;;20.77;62.16;99615.58;1847332;75;21186;-78
2022/08/23 02:52:54;;;;;;;8.53;5.70;;;;;;;20.75;62.38;99617.70;1831216;77;21170;-74
2022/08/23 02:55:20;;;;;;;13.15;4.83;;;;;;;20.74;62.26;99617.94;1852078;75;21013;-74
2022/08/23 02:57:47;;;;;;;13.15;4.75;;;;;;;20.71;62.24;99619.78;1862323;77;21198;-75
2022/08/23 03:00:14;;;;;;;18.32;5.78;;;;;;;20.67;61.97;99614.53;1821430;75;21560;-76
2022/08/23 03:02:41;;;;;;;10.80;4.85;;;;;;;20.66;61.91;99618.31;1855646;75;21021;-75
2022/08/23 03:05:08;;;;;;;18.25;5.12;;;;;;;20.64;62.06;99620.43;1839827;77;21085;-72
2022/08/23 03:07:36;;;;;;;14.15;4.97;;;;;;;20.63;62.10;99626.36;1835867;75;21110;-76
2022/08/23 03:10:04;;;;;;;15.15;4.47;;;;;;;20.61;62.22;99628.48;1823589;77;21063;-76
2022/08/23 03:12:32;;;;;;;13.83;4.70;;;;;;;20.59;62.47;99623.78;1841984;77;20990;-74
2022/08/23 03:14:59;;;;;;;9.03;4.20;;;;;;;20.58;62.36;99620.81;1845790;77;21033;-75
2022/08/23 03:17:25;;;;;;;13.95;4.78;;;;;;;20.56;62.37;99625.09;1836054;77;21141;-73
2022/08/23 03:19:52;;;;;;;11.57;5.25;;;;;;;20.56;62.70;99634.53;1831671;77;20998;-74
2022/08/23 03:22:20;;;;;;;14.38;4.60;;;;;;;20.56;62.33;99641.28;1835347;77;21303;-79
2022/08/23 03:24:47;;;;;;;13.10;4.80;;;;;;;20.55;63.11;99644.21;1840430;76;21032;-76
2022/08/23 03:27:13;;;;;;;10.28;4.70;;;;;;;20.55;63.71;99641.51;1837258;77;21005;-75
2022/08/23 03:29:40;;;;;;;18.45;4.53;;;;;;;20.53;63.78;99644.98;1816101;77;21032;-74
2022/08/23 03:32:07;;;;;;;16.37;5.67;;;;;;;20.53;63.81;99635.53;1816161;77;21017;-75
2022/08/23 03:34:36;;;;;;;12.82;4.42;;;;;;;20.52;64.38;99636.06;1829458;77;21836;-75
2022/08/23 03:37:05;;;;;;;12.20;5.12;;;;;;;20.52;64.48;99644.70;1798763;77;21020;-76
2022/08/23 03:39:33;;;;;;;11.40;5.15;;;;;;;20.53;64.22;99639.58;1817754;77;21016;-76
2022/08/23 03:42:00;;;;;;;12.35;4.78;;;;;;;20.53;64.34;99639.58;1808763;77;20970;-77
2022/08/23 03:44:29;;;;;;;11.28;4.83;;;;;;;20.53;63.36;99646.33;1842252;76;21010;-75
2022/08/23 03:46:58;;;;;;;12.60;4.83;;;;;;;20.54;62.90;99645.28;1813192;76;21065;-74
2022/08/23 03:49:25;;;;;;;11.65;4.78;;;;;;;20.52;62.53;99649.56;1834638;77;21025;-75
2022/08/23 03:51:54;;;;;;;11.18;5.20;;;;;;;20.55;62.69;99653.15;1843809;77;21039;-75
2022/08/23 03:54:21;;;;;;;12.30;5.25;;;;;;;20.57;62.70;99656.43;1844648;77;21014;-75
2022/08/23 03:56:59;;;;;;;20.20;5.05;;;;;;;20.59;62.24;99658.39;1813028;77;21044;-74
2022/08/23 03:59:25;;;;;;;17.73;5.10;;;;;;;20.62;61.88;99663.84;1830946;77;21121;-72
2022/08/23 04:01:52;;;;;;;16.93;5.75;;;;;;;20.66;61.52;99660.95;1813063;77;21021;-75
2022/08/23 04:04:19;;;;;;;12.53;4.55;;;;;;;20.70;61.06;99662.12;1822446;76;21064;-75
2022/08/23 04:06:47;;;;;;;11.53;4.00;;;;;;;20.76;60.84;99673.31;1820973;77;21040;-75
2022/08/23 04:09:14;;;;;;;15.45;4.70;;;;;;;20.81;60.44;99669.92;1815913;77;21028;-73
2022/08/23 04:11:42;;;;;;;16.25;5.15;;;;;;;20.88;60.31;99675.19;1819713;77;21056;-76
2022/08/23 04:14:08;;;;;;;14.58;5.15;;;;;;;20.94;60.06;99679.13;1841110;77;21025;-75
2022/08/23 04:16:39;;;;;;;15.38;5.62;;;;;;;21.00;59.81;99676.81;1857766;77;21509;-77
2022/08/23 04:19:07;;;;;;;17.10;5.83;;;;;;;21.08;59.49;99672.11;1843665;77;21041;-75
2022/08/23 04:21:36;;;;;;;13.43;4.90;;;;;;;21.15;58.95;99678.17;1838416;75;21057;-69
2022/08/23 04:24:03;;;;;;;11.78;4.85;;;;;;;21.21;58.65;99677.24;1843855;75;21189;-73
2022/08/23 04:26:32;;;;;;;17.90;5.40;;;;;;;21.27;58.58;99680.87;1827301;77;21029;-74
2022/08/23 04:28:59;;;;;;;11.85;5.28;;;;;;;21.34;58.44;99684.23;1855363;75;20997;-74
2022/08/23 04:31:26;;;;;;;16.48;5.83;;;;;;;21.41;58.19;99685.73;1840200;77;21157;-74
2022/08/23 04:33:55;;;;;;;14.53;5.28;;;;;;;21.47;57.95;99685.87;1859293;77;21544;-76
2022/08/23 04:36:22;;;;;;;15.58;4.75;;;;;;;21.52;57.65;99685.98;1858130;77;21113;-76
2022/08/23 04:38:48;;;;;;;14.60;5.12;;;;;;;21.59;57.33;99692.88;1857061;77;21033;-75
2022/08/23 04:44:00;;;;;;;17.65;4.97;;;;;;;21.72;56.92;99695.80;1800510;77;20982;-74
2022/08/23 04:46:28;;;;;;;22.20;5.72;;;;;;;21.79;56.90;99694.31;1847060;77;21080;-73
2022/08/23 04:48:56;;;;;;;20.32;5.45;;;;;;;21.85;56.59;99689.81;1845145;77;21497;-72
2022/08/23 04:51:23;;;;;;;25.17;5.42;;;;;;;21.92;56.48;99694.52;1837521;77;21028;-75
2022/08/23 04:53:50;;;;;;;14.13;5.60;;;;;;;21.96;56.26;99691.09;1857280;76;21545;-72
2022/08/23 04:56:18;;;;;;;20.77;5.60;;;;;;;22.03;56.10;99690.93;1784636;77;21002;-74
2022/08/23 04:58:44;;;;;;;22.13;5.25;;;;;;;22.10;55.93;99697.55;1834150;75;21035;-72
2022/08/23 05:01:14;;;;;;;16.35;5.78;;;;;;;22.15;55.76;99688.95;1852766;75;22040;-75
2022/08/23 05:03:40;;;;;;;17.82;5.78;;;;;;;22.19;55.42;99687.42;1840249;75;21104;-75
2022/08/23 05:06:06;;;;;;;15.20;6.33;;;;;;;22.24;55.12;99690.73;1809241;77;21049;-74
2022/08/23 05:08:35;;;;;;;17.37;5.25;;;;;;;22.29;54.58;99690.02;1846995;76;21061;-75
2022/08/23 05:11:04;;;;;;;15.20;5.55;;;;;;;22.33;54.44;99697.41;1791687;77;21048;-75
2022/08/23 05:13:31;;;;;;;24.52;6.53;;;;;;;22.38;54.29;99702.88;1765561;80;21777;-74
2022/08/23 05:15:58;;;;;;;25.32;6.10;;;;;;;22.44;54.18;99709.20;1791168;80;21509;-72
2022/08/23 05:18:25;;;;;;;23.87;5.55;;;;;;;22.51;53.96;99704.98;1783637;79;21108;-73
2022/08/23 05:20:52;;;;;;;20.90;6.20;;;;;;;22.57;53.80;99709.41;1787365;80;21076;-75
2022/08/23 05:23:20;;;;;;;24.75;6.40;;;;;;;22.63;53.38;99713.01;1775503;78;21057;-73
2022/08/23 05:25:48;;;;;;;30.20;6.75;;;;;;;22.68;53.15;99713.91;1788413;80;21145;-76
2022/08/23 05:28:21;;;;;;;31.60;7.03;;;;;;;22.74;52.59;99716.97;1783472;78;21054;-74
2022/08/23 05:31:02;;;;;;;30.80;6.45;;;;;;;22.83;52.92;99721.95;1786948;78;21085;-72
2022/08/23 05:33:31;;;;;;;29.95;6.80;;;;;;;22.91;52.75;99719.65;1777849;79;21045;-76
2022/08/23 05:35:58;;;;;;;40.28;8.13;;;;;;;23.00;52.18;99728.15;1791748;80;21085;-74
2022/08/23 05:38:25;;;;;;;43.42;6.85;;;;;;;23.08;51.50;99720.16;1807174;78;21104;-77
2022/08/23 05:40:53;;;;;;;34.50;8.10;;;;;;;23.15;51.36;99726.22;1776577;79;21078;-75
2022/08/23 05:43:20;;;;;;;31.35;6.80;;;;;;;23.25;51.60;99724.17;1802014;78;21038;-76
2022/08/23 05:45:47;;;;;;;32.33;8.80;;;;;;;23.35;51.54;99722.92;1798254;78;21048;-75
2022/08/23 05:48:14;;;;;;;41.33;8.43;;;;;;;23.46;51.34;99726.59;1799732;78;21085;-75
2022/08/23 05:50:47;;;;;;;46.80;8.98;;;;;;;23.54;50.65;99725.59;1772828;80;21264;-73
2022/08/23 05:53:14;;;;;;;40.75;7.65;;;;;;;23.62;50.76;99730.28;1776872;78;21069;-75
2022/08/23 05:55:42;;;;;;;43.55;8.68;;;;;;;23.68;50.55;99728.75;1773122;78;21107;-74
2022/08/23 05:58:16;;;;;;;36.08;8.23;;;;;;;23.74;50.71;99733.14;1761375;80;21027;-73
2022/08/23 06:00:43;;;;;;;31.97;8.08;;;;;;;23.82;50.48;99728.38;1778800;78;21100;-75
2022/08/23 06:03:10;;;;;;;45.55;10.43;;;;;;;23.89;50.53;99735.75;1780403;80;21105;-79
2022/08/23 06:05:40;;;;;;;31.27;7.47;;;;;;;23.95;50.34;99734.72;1809715;78;20989;-81
2022/08/23 06:08:08;;;;;;;40.40;7.92;;;;;;;24.01;50.28;99739.14;1781679;79;21081;-81
2022/08/23 06:10:36;;;;;;;34.85;8.25;;;;;;;24.07;50.17;99732.69;1787196;78;21065;-80
2022/08/23 06:13:04;;;;;;;41.65;8.90;;;;;;;24.13;49.93;99745.77;1790549;79;21006;-83
2022/08/23 06:15:33;;;;;;;42.45;9.48;;;;;;;24.18;49.94;99743.63;1805457;79;21060;-82
2022/08/23 06:17:59;;;;;;;39.23;9.38;;;;;;;24.24;49.95;99750.20;1803127;79;21576;-82
2022/08/23 06:20:26;;;;;;;38.23;9.68;;;;;;;24.29;49.93;99752.95;1801740;79;21009;-80
2022/08/23 06:23:01;;;;;;;36.77;8.10;;;;;;;24.31;49.70;99756.77;1787632;79;21035;-85
2022/08/23 06:25:31;;;;;;;37.80;7.92;;;;;;;24.33;49.68;99760.04;1793482;79;20957;-81
2022/08/23 06:28:08;;;;;;;40.58;8.60;;;;;;;24.34;49.76;99758.98;1780401;79;21999;-81
2022/08/23 06:30:38;;;;;;;42.83;9.70;;;;;;;24.35;49.99;99753.81;1783158;78;20993;-84
2022/08/23 06:33:06;;;;;;;30.10;8.40;;;;;;;24.41;49.84;99764.98;1784261;79;21494;-79
2022/08/23 06:35:35;;;;;;;34.63;9.35;;;;;;;24.45;49.77;99764.75;1731641;79;21104;-79
2022/08/23 06:38:05;;;;;;;34.75;8.38;;;;;;;24.54;49.82;99767.84;1798994;79;21339;-83
2022/08/23 06:40:43;;;;;;;40.38;9.08;;;;;;;24.64;49.67;99770.63;1750097;79;21134;-80
2022/08/23 06:43:20;;;;;;;39.05;8.50;;;;;;;24.75;49.27;99768.01;1764815;78;21191;-79
2022/08/23 06:45:52;;;;;;;34.10;9.15;;;;;;;24.84;49.25;99777.28;1787671;78;21361;-76
2022/08/23 06:48:20;;;;;;;43.42;8.88;;;;;;;24.93;49.20;99779.24;1788984;78;21053;-78
2022/08/23 06:50:46;;;;;;;44.50;9.83;;;;;;;25.05;49.11;99780.95;1763069;79;21001;-76
2022/08/23 06:53:21;;;;;;;54.45;10.08;;;;;;;25.16;48.66;99781.29;1778947;79;21130;-77
2022/08/23 06:55:55;;;;;;;44.75;10.10;;;;;;;25.26;48.35;99778.64;1788265;78;21024;-79
2022/08/23 06:58:26;;;;;;;49.80;9.78;;;;;;;25.37;48.44;99784.15;1783402;78;21064;-80
2022/08/23 07:01:33;;;;;;;48.92;9.40;;;;;;;25.49;48.43;99780.66;1787737;78;21529;-78
2022/08/23 07:04:05;;;;;;;52.95;9.85;;;;;;;25.68;48.00;99784.53;1793285;78;21567;-78
2022/08/23 07:06:38;;;;;;;44.93;10.30;;;;;;;25.84;47.39;99789.47;1767624;79;21125;-79
2022/08/23 07:09:05;;;;;;;57.78;12.18;;;;;;;25.96;47.11;99792.01;1794844;78;21596;-78
2022/08/23 07:11:34;;;;;;;47.13;10.45;;;;;;;26.08;46.81;99787.67;1796387;78;21179;-79
2022/08/23 07:14:04;;;;;;;57.83;10.80;;;;;;;26.19;46.62;99792.57;1784964;78;21111;-78
2022/08/23 07:16:40;;;;;;;75.12;11.75;;;;;;;26.29;46.28;99789.33;1801350;79;21092;-77
2022/08/23 07:19:07;;;;;;;54.25;11.63;;;;;;;26.43;46.32;99795.05;1782467;79;21749;-79
2022/08/23 07:21:35;;;;;;;54.83;11.38;;;;;;;26.57;46.02;99790.42;1789751;78;21025;-80
2022/08/23 07:24:02;;;;;;;46.75;11.93;;;;;;;26.68;45.41;99800.26;1784840;78;21053;-79
2022/08/23 07:26:31;;;;;;;56.68;11.25;;;;;;;26.72;45.27;99801.90;1798473;78;21024;-76
2022/08/23 07:28:58;;;;;;;62.85;11.03;;;;;;;26.76;45.28;99811.97;1799321;78;21096;-76
2022/08/23 07:31:29;;;;;;;55.58;11.53;;;;;;;26.82;45.48;99812.22;1801698;79;21775;-73
2022/08/23 07:33:58;;;;;;;67.92;12.88;;;;;;;26.90;45.45;99811.41;1789610;79;21624;-75
2022/08/23 07:36:25;;;;;;;46.68;9.88;;;;;;;26.98;45.55;99813.56;1786702;78;21108;-75
2022/08/23 07:38:52;;;;;;;66.72;13.18;;;;;;;27.05;45.49;99811.38;1797455;78;21021;-77
2022/08/23 07:41:19;;;;;;;63.68;12.23;;;;;;;27.14;45.60;99813.82;1796573;78;21528;-75
2022/08/23 07:43:48;;;;;;;76.95;13.18;;;;;;;27.25;45.24;99811.37;1797876;78;21246;-76
2022/08/23 07:46:16;;;;;;;71.57;12.82;;;;;;;27.37;45.31;99813.79;1796521;78;21035;-81
2022/08/23 07:48:43;;;;;;;65.08;13.03;;;;;;;27.49;45.27;99810.75;1796497;78;21073;-76
2022/08/23 07:51:12;;;;;;;61.77;12.05;;;;;;;27.66;44.95;99811.74;1792814;78;21545;-77
2022/08/23 07:53:39;;;;;;;56.35;11.57;;;;;;;27.83;44.74;99807.30;1777471;78;21626;-76
2022/08/23 07:56:09;;;;;;;57.83;12.13;;;;;;;27.98;44.38;99802.34;1776438;78;21538;-82
2022/08/23 07:58:54;;;;;;;69.82;12.47;;;;;;;28.08;44.12;99802.83;1807875;78;20998;-82
2022/08/23 08:01:34;;;;;;;51.63;11.83;;;;;;;28.11;44.01;99803.08;1802604;77;21056;-82
2022/08/23 08:04:05;;;;;;;57.75;11.60;;;;;;;28.17;43.90;99804.67;1789501;78;21588;-83
2022/08/23 08:06:45;;;;;;;58.45;11.38;;;;;;;28.23;43.58;99804.89;1816071;77;21001;-83
2022/08/23 08:09:14;;;;;;;60.20;11.90;;;;;;;28.29;43.38;99809.78;1810213;77;21246;-83
2022/08/23 08:11:44;;;;;;;62.50;13.98;;;;;;;28.35;43.41;99807.83;1816805;77;21068;-75
2022/08/23 08:14:12;;;;;;;63.83;12.00;;;;;;;28.46;43.28;99814.04;1809123;77;21066;-76
2022/08/23 08:16:44;;;;;;;66.07;12.30;;;;;;;28.56;42.89;99813.98;1826289;77;21057;-79
2022/08/23 08:19:14;;;;;;;71.50;12.55;;;;;;;28.61;42.51;99814.75;1823839;77;21056;-77
2022/08/23 08:22:00;;;;;;;65.00;13.10;;;;;;;28.60;42.57;99809.01;1818858;77;21252;-77
2022/08/23 08:24:45;;;;;;;61.20;12.03;;;;;;;28.68;42.45;99813.05;1810962;78;21103;-76
2022/08/23 08:27:12;;;;;;;60.83;12.82;;;;;;;28.76;42.47;99812.45;1820811;78;21031;-79
2022/08/23 08:29:40;;;;;;;57.98;12.10;;;;;;;28.83;42.25;99807.44;1822132;77;21695;-73
2022/08/23 08:32:09;;;;;;;59.03;12.58;;;;;;;28.91;42.15;99806.56;1785693;79;21112;-80
2022/08/23 08:34:37;;;;;;;65.37;11.70;;;;;;;29.02;42.21;99814.92;1804059;78;21200;-80
2022/08/23 08:37:04;;;;;;;72.80;12.93;;;;;;;29.17;41.91;99813.99;1790769;78;21480;-79
2022/08/23 08:39:34;;;;;;;52.85;12.53;;;;;;;29.29;41.82;99817.69;1802654;78;21023;-80
2022/08/23 08:42:27;;;;;;;68.83;13.78;;;;;;;29.35;41.75;99817.89;1787372;78;21545;-80
2022/08/23 08:45:07;;;;;;;71.92;12.63;;;;;;;29.42;41.53;99823.83;1830046;77;21026;-79
2022/08/23 08:47:57;;;;;;;55.90;12.00;;;;;;;29.60;41.28;99823.05;1818282;78;22184;-78
2022/08/23 08:50:39;;;;;;;61.50;12.05;;;;;;;29.85;40.82;99823.86;1815221;78;21525;-82
2022/08/23 08:53:16;;;;;;;68.00;13.22;;;;;;;30.08;40.51;99830.39;1798366;78;21137;-84
2022/08/23 08:55:52;;;;;;;60.33;11.12;;;;;;;30.29;40.61;99821.84;1813594;78;21064;-82
2022/08/23 08:58:30;;;;;;;62.78;12.68;;;;;;;30.49;40.02;99827.61;1805506;77;21498;-80
2022/08/23 09:00:58;;;;;;;65.15;12.20;;;;;;;30.63;39.89;99826.28;1793629;78;21130;-81
2022/08/23 09:03:30;;;;;;;57.17;12.03;;;;;;;30.67;40.17;99829.48;1797379;78;21084;-79
2022/08/23 09:06:02;;;;;;;56.75;11.43;;;;;;;30.84;39.88;99824.00;1806312;77;21044;-80
2022/08/23 09:08:46;;;;;;;65.55;12.23;;;;;;;31.10;39.45;99827.95;1804509;77;21080;-86
2022/08/23 09:11:31;;;;;;;53.23;10.95;;;;;;;31.38;39.07;99831.27;1801283;78;21045;-79
2022/08/23 09:14:15;;;;;;;55.60;10.95;;;;;;;31.67;38.73;99828.23;1805314;77;21099;-79
2022/08/23 09:16:56;;;;;;;66.80;11.83;;;;;;;32.00;37.89;99826.13;1782836;76;21045;-79
2022/08/23 09:19:23;;;;;;;47.83;10.82;;;;;;;32.37;37.64;99830.26;1803856;78;21077;-81
2022/08/23 09:21:58;;;;;;;52.27;10.35;;;;;;;32.68;36.69;99837.22;1805932;77;21021;-82
2022/08/23 09:24:25;;;;;;;40.75;10.15;;;;;;;32.81;36.54;99839.08;1779913;79;21045;-85
2022/08/23 09:26:56;;;;;;;40.52;10.15;;;;;;;32.88;36.36;99840.03;1811584;77;21096;-81
2022/08/23 09:29:27;;;;;;;50.35;11.50;;;;;;;33.01;36.26;99832.25;1771987;79;21010;-82
2022/08/23 09:32:01;;;;;;;47.43;9.85;;;;;;;33.26;36.04;99837.66;1805892;78;21067;-81
2022/08/23 09:34:35;;;;;;;37.33;9.83;;;;;;;33.66;35.70;99838.20;1782706;80;21011;-82
2022/08/23 09:37:21;;;;;;;37.83;9.03;;;;;;;33.98;35.23;99836.13;1804273;78;20998;-83
2022/08/23 09:39:54;;;;;;;25.68;7.17;;;;;;;34.32;34.22;99831.23;1804730;78;21137;-84
2022/08/23 09:42:32;;;;;;;38.00;8.75;;;;;;;34.61;33.40;99822.84;1819102;78;21064;-88
2022/08/23 09:45:00;;;;;;;21.20;6.58;;;;;;;34.99;32.73;99846.40;1778207;79;21139;-88
2022/08/23 09:47:39;;;;;;;31.67;7.77;;;;;;;35.36;31.80;99833.54;1808083;77;20954;-89
2022/08/23 09:50:27;;;;;;;28.80;9.40;;;;;;;35.66;31.74;99827.45;1802607;78;21018;-87
2022/08/23 09:53:05;;;;;;;24.47;6.92;;;;;;;35.78;31.23;99828.94;1780074;78;21331;-79
2022/08/23 09:55:41;;;;;;;30.48;7.00;;;;;;;35.66;30.94;99822.47;1807286;78;21069;-80
2022/08/23 09:58:34;;;;;;;28.98;6.40;;;;;;;35.71;30.91;99834.17;1775878;80;21017;-81
2022/08/23 10:01:22;;;;;;;31.75;5.95;;;;;;;35.69;30.49;99824.03;1805931;78;21053;-80
2022/08/23 10:04:15;;;;;;;23.40;7.03;;;;;;;35.49;30.59;99835.27;1766029;79;21057;-82
2022/08/23 10:06:44;;;;;;;26.80;5.45;;;;;;;35.11;30.57;99842.95;1809408;78;22193;-85
2022/08/23 10:09:28;;;;;;;19.98;5.15;;;;;;;34.66;30.25;99858.55;1797143;78;20990;-86
2022/08/23 10:11:57;;;;;;;15.20;5.40;;;;;;;34.35;30.50;99841.63;1784257;78;21029;-83
2022/08/23 10:14:24;;;;;;;18.00;5.20;;;;;;;34.20;30.65;99838.78;1803196;78;20974;-82
2022/08/23 10:17:15;;;;;;;31.55;5.78;;;;;;;34.06;30.79;99840.28;1815135;78;21729;-82
2022/08/23 10:19:59;;;;;;;20.62;5.25;;;;;;;33.82;31.22;99845.44;1812485;79;21850;-82
2022/08/23 10:22:27;;;;;;;13.43;5.08;;;;;;;33.51;31.62;99846.30;1801727;79;21059;-84
2022/08/23 10:25:13;;;;;;;28.42;5.83;;;;;;;33.32;32.02;99845.75;1756118;79;21554;-83
2022/08/23 10:31:36;;;;;;;14.75;4.95;;;;;;;32.84;32.63;99837.66;1799614;77;21619;-81
2022/08/23 10:34:14;;;;;;;24.50;5.87;;;;;;;32.48;33.14;99844.81;1803871;78;21182;-81
2022/08/23 10:37:21;;;;;;;25.17;6.20;;;;;;;32.28;33.45;99850.82;1802988;78;21064;-79
2022/08/23 10:39:54;;;;;;;26.77;7.00;;;;;;;32.16;34.07;99847.79;1806117;78;21008;-79
2022/08/23 10:42:43;;;;;;;20.57;5.17;;;;;;;32.11;34.80;99854.22;1759126;80;21005;-81
2022/08/23 10:45:30;;;;;;;18.95;5.08;;;;;;;32.12;34.53;99849.80;1764030;80;21584;-82
2022/08/23 10:48:26;;;;;;;19.57;5.67;;;;;;;32.12;34.11;99857.20;1805623;79;21119;-85
2022/08/23 10:50:55;;;;;;;20.70;5.28;;;;;;;32.07;34.16;99862.84;1808194;78;21013;-86
2022/08/23 10:53:44;;;;;;;17.32;5.83;;;;;;;32.01;34.03;99850.28;1802133;78;21030;-86
2022/08/23 10:56:12;;;;;;;20.15;5.62;;;;;;;32.21;34.41;99842.98;1811813;78;21053;-87
2022/08/23 10:58:53;;;;;;;25.60;6.10;;;;;;;32.73;33.91;99841.80;1782156;79;21009;-85
2022/08/23 11:01:44;;;;;;;12.13;4.60;;;;;;;33.54;33.23;99846.25;1797960;78;21143;-88
2022/08/23 11:04:32;;;;;;;15.65;4.50;;;;;;;34.45;31.51;99841.28;1773703;76;20895;-90
2022/08/23 11:07:03;;;;;;;13.22;4.30;;;;;;;35.41;30.63;99843.83;1814001;78;20986;-90
2022/08/23 11:09:37;;;;;;;12.18;4.25;;;;;;;36.36;28.53;99846.33;1809284;78;21033;-87
2022/08/23 11:12:20;;;;;;;11.08;3.95;;;;;;;37.16;28.08;99828.59;1788196;79;20989;-86
2022/08/23 11:15:11;;;;;;;6.85;3.77;;;;;;;37.83;27.13;99818.66;1752411;80;21217;-86
2022/08/23 11:17:52;;;;;;;9.98;3.55;;;;;;;38.49;26.32;99827.11;1762153;80;21062;-87
2022/08/23 11:20:54;;;;;;;12.33;3.60;;;;;;;38.94;25.41;99819.83;1781557;79;20966;-88
2022/08/23 11:23:48;;;;;;;15.65;4.62;;;;;;;39.12;25.30;99818.10;1789553;79;21192;-89
2022/08/23 11:26:36;;;;;;;16.62;5.10;;;;;;;39.04;25.31;99828.23;1769544;79;21622;-82
2022/08/23 11:29:13;;;;;;;8.75;3.85;;;;;;;38.62;25.25;99827.89;1809068;79;21292;-81
2022/08/23 11:32:09;;;;;;;12.60;4.17;;;;;;;37.96;25.30;99833.52;1757405;78;20994;-83
2022/08/23 11:34:56;;;;;;;14.07;4.78;;;;;;;37.10;25.77;99825.20;1793611;78;21099;-80
2022/08/23 11:37:27;;;;;;;9.05;3.87;;;;;;;36.20;26.62;99833.13;1745065;78;21081;-82
2022/08/23 11:40:01;;;;;;;11.10;4.10;;;;;;;35.62;27.24;99834.22;1770359;80;21631;-81
2022/08/23 11:42:47;;;;;;;10.25;3.62;;;;;;;35.23;27.37;99834.83;1766597;79;21924;-82
2022/08/23 11:45:38;;;;;;;12.88;4.25;;;;;;;34.87;27.90;99836.62;1800130;79;21084;-82
2022/08/23 11:48:26;;;;;;;10.95;4.50;;;;;;;34.55;28.15;99823.58;1779080;78;21204;-80
2022/08/23 11:51:14;;;;;;;9.28;4.17;;;;;;;34.21;28.99;99826.63;1782759;79;21024;-80
2022/08/23 11:53:52;;;;;;;14.25;4.83;;;;;;;34.00;28.87;99825.63;1748265;80;21098;-82
2022/08/23 11:56:47;;;;;;;12.63;3.92;;;;;;;33.75;29.39;99821.13;1776808;80;21122;-82
2022/08/23 11:59:53;;;;;;;15.43;4.22;;;;;;;33.62;29.60;99823.42;1746684;79;21029;-80
2022/08/23 12:02:49;;;;;;;12.82;4.10;;;;;;;33.41;29.75;99822.62;1706863;80;21030;-78
2022/08/23 12:05:21;;;;;;;15.70;4.00;;;;;;;33.20;29.81;99814.70;1772523;79;21101;-80
2022/08/23 12:08:03;;;;;;;19.52;4.62;;;;;;;32.99;30.22;99822.67;1780698;79;21019;-78